createdAt,value
2023-03-19T00:01:56.918Z,10.20
2023-03-19T00:03:59.872Z,10.20
2023-03-19T00:06:02.753Z,10.60
2023-03-19T00:08:06.604Z,10.80
2023-03-19T00:10:10.024Z,10.60
2023-03-19T00:12:12.860Z,10.20
2023-03-19T00:14:16.156Z,10.20
2023-03-19T00:16:21.505Z,10.20
2023-03-19T00:18:23.989Z,10.80
2023-03-19T00:20:26.419Z,10.20
2023-03-19T00:22:29.722Z,10.20
2023-03-19T00:24:32.397Z,10.50
2023-03-19T00:26:36.061Z,10.20
2023-03-19T00:28:38.802Z,10.20
2023-03-19T00:30:41.238Z,10.20
2023-03-19T00:32:46.321Z,10.00
2023-03-19T00:34:48.690Z,10.10
2023-03-19T00:36:53.271Z,10.20
2023-03-19T00:38:56.453Z,10.10
2023-03-19T00:40:59.085Z,10.00
2023-03-19T00:43:01.665Z,10.00
2023-03-19T00:45:04.547Z,10.10
2023-03-19T00:47:09.060Z,10.10
2023-03-19T00:49:15.277Z,10.10
2023-03-19T00:51:18.001Z,10.80
2023-03-19T00:53:20.632Z,10.70
2023-03-19T00:55:23.125Z,10.10
2023-03-19T00:57:25.746Z,10.10
2023-03-19T00:59:28.311Z,10.10
2023-03-19T01:01:32.198Z,10.90
2023-03-19T01:03:34.738Z,10.20
2023-03-19T01:05:39.741Z,10.20
2023-03-19T01:07:43.082Z,10.20
2023-03-19T01:09:45.525Z,10.10
2023-03-19T01:11:47.969Z,10.20
2023-03-19T01:13:50.420Z,10.20
2023-03-19T01:15:53.918Z,10.60
2023-03-19T01:17:57.685Z,10.40
2023-03-19T01:20:00.055Z,10.20
2023-03-19T01:22:05.292Z,10.30
2023-03-19T01:24:10.806Z,10.30
2023-03-19T01:26:13.945Z,10.30
2023-03-19T01:28:17.210Z,10.30
2023-03-19T01:30:20.703Z,10.70
2023-03-19T01:32:50.090Z,10.30
2023-03-19T01:35:07.609Z,10.30
2023-03-19T01:37:12.866Z,10.30
2023-03-19T01:39:16.878Z,10.30
2023-03-19T01:41:19.574Z,10.30
2023-03-19T01:43:29.125Z,10.30
2023-03-19T01:45:49.954Z,10.40
2023-03-19T01:48:20.796Z,10.40
2023-03-19T01:50:41.174Z,10.40
2023-03-19T01:53:24.545Z,10.40
2023-03-19T01:55:34.045Z,10.40
2023-03-19T01:57:44.466Z,10.40
2023-03-19T02:00:08.403Z,10.40
2023-03-19T02:02:25.734Z,10.50
2023-03-19T02:04:31.887Z,10.50
2023-03-19T02:06:35.584Z,10.50
2023-03-19T02:08:42.378Z,10.50
2023-03-19T02:10:47.811Z,10.90
2023-03-19T02:12:51.161Z,10.70
2023-03-19T02:14:54.446Z,10.60
2023-03-19T02:16:57.150Z,10.40
2023-03-19T02:19:01.527Z,10.40
2023-03-19T02:21:07.060Z,10.40
2023-03-19T02:23:17.973Z,10.40
2023-03-19T02:25:33.026Z,10.60
2023-03-19T02:27:38.606Z,10.40
2023-03-19T02:29:41.160Z,10.40
2023-03-19T02:31:43.828Z,10.30
2023-03-19T02:33:57.913Z,10.60
2023-03-19T02:36:02.116Z,10.30
2023-03-19T02:38:05.377Z,10.70
2023-03-19T02:40:11.620Z,10.30
2023-03-19T02:42:16.148Z,10.30
2023-03-19T02:44:21.525Z,10.20
2023-03-19T02:46:26.279Z,11.10
2023-03-19T02:48:29.156Z,10.20
2023-03-19T02:50:31.921Z,10.20
2023-03-19T02:52:34.743Z,10.70
2023-03-19T02:54:37.208Z,10.20
2023-03-19T02:56:39.707Z,10.20
2023-03-19T02:58:42.264Z,10.20
2023-03-19T03:00:47.458Z,10.20
2023-03-19T03:02:50.891Z,10.20
2023-03-19T03:04:53.358Z,10.40
2023-03-19T03:06:55.850Z,10.20
2023-03-19T03:08:58.261Z,10.20
2023-03-19T03:11:01.136Z,10.20
2023-03-19T03:13:05.613Z,10.20
2023-03-19T03:15:09.564Z,10.20
2023-03-19T03:17:15.504Z,10.20
2023-03-19T03:19:17.912Z,10.20
2023-03-19T03:21:21.607Z,10.20
2023-03-19T03:23:24.196Z,10.20
2023-03-19T03:25:26.677Z,10.20
2023-03-19T03:27:29.082Z,10.40
2023-03-19T03:29:31.528Z,10.20
2023-03-19T03:31:34.976Z,10.20
2023-03-19T03:33:40.787Z,11.00
2023-03-19T03:35:43.530Z,11.10
2023-03-19T03:37:46.436Z,10.20
2023-03-19T03:39:48.936Z,10.20
2023-03-19T03:41:51.661Z,10.50
2023-03-19T03:43:54.638Z,10.50
2023-03-19T03:45:57.150Z,10.20
2023-03-19T03:48:02.626Z,10.20
2023-03-19T03:50:11.220Z,11.00
2023-03-19T03:52:14.502Z,10.20
2023-03-19T03:54:17.038Z,10.20
2023-03-19T03:56:19.472Z,10.50
2023-03-19T03:58:21.916Z,10.20
2023-03-19T04:00:24.757Z,10.20
2023-03-19T04:02:28.236Z,10.20
2023-03-19T04:04:31.631Z,10.90
2023-03-19T04:06:37.002Z,10.20
2023-03-19T04:08:59.830Z,10.50
2023-03-19T04:11:06.918Z,10.50
2023-03-19T04:13:10.024Z,10.20
2023-03-19T04:15:14.190Z,10.20
2023-03-19T04:17:19.576Z,10.20
2023-03-19T04:19:22.080Z,10.30
2023-03-19T04:21:24.447Z,10.20
2023-03-19T04:23:29.541Z,10.10
2023-03-19T04:25:31.975Z,10.10
2023-03-19T04:27:34.492Z,10.10
2023-03-19T04:29:36.945Z,11.20
2023-03-19T04:31:39.665Z,10.20
2023-03-19T04:33:42.333Z,10.80
2023-03-19T04:35:44.846Z,10.10
2023-03-19T04:37:48.907Z,10.10
2023-03-19T04:39:55.848Z,10.20
2023-03-19T04:41:58.754Z,11.10
2023-03-19T04:44:10.915Z,10.10
2023-03-19T04:46:15.849Z,10.10
2023-03-19T04:48:21.400Z,10.10
2023-03-19T04:50:25.533Z,10.10
2023-03-19T04:52:30.065Z,10.10
2023-03-19T04:54:32.797Z,10.10
2023-03-19T04:56:37.976Z,10.30
2023-03-19T04:58:40.961Z,10.50
2023-03-19T05:00:46.959Z,10.10
2023-03-19T05:02:54.173Z,10.10
2023-03-19T05:04:57.428Z,10.30
2023-03-19T05:07:00.001Z,10.10
2023-03-19T05:09:02.817Z,10.00
2023-03-19T05:11:05.465Z,10.00
2023-03-19T05:13:22.999Z,9.90
2023-03-19T05:15:27.666Z,10.40
2023-03-19T05:17:40.320Z,10.20
2023-03-19T05:20:07.220Z,10.80
2023-03-19T05:22:11.263Z,9.80
2023-03-19T05:24:14.772Z,9.80
2023-03-19T05:26:18.436Z,9.80
2023-03-19T05:29:01.881Z,9.80
2023-03-19T05:31:15.433Z,9.80
2023-03-19T05:33:22.821Z,9.70
2023-03-19T05:35:27.872Z,9.80
2023-03-19T05:37:30.418Z,9.80
2023-03-19T05:39:34.494Z,9.70
2023-03-19T05:41:41.740Z,9.70
2023-03-19T05:43:44.413Z,9.70
2023-03-19T05:46:01.852Z,9.70
2023-03-19T05:48:09.149Z,9.70
2023-03-19T05:50:16.767Z,9.60
2023-03-19T05:52:36.675Z,9.60
2023-03-19T05:54:40.173Z,9.50
2023-03-19T05:56:55.141Z,9.40
2023-03-19T05:59:10.494Z,9.40
2023-03-19T06:01:19.992Z,9.60
2023-03-19T06:03:23.874Z,9.30
2023-03-19T06:05:28.723Z,9.90
2023-03-19T06:07:36.861Z,8.90
2023-03-19T06:09:42.778Z,9.20
2023-03-19T06:11:47.061Z,9.20
2023-03-19T06:14:08.215Z,9.20
2023-03-19T06:16:15.528Z,10.10
2023-03-19T06:18:32.183Z,9.10
2023-03-19T06:20:36.298Z,9.10
2023-03-19T06:22:39.059Z,9.10
2023-03-19T06:24:41.985Z,9.10
2023-03-19T06:26:46.067Z,9.50
2023-03-19T06:28:50.912Z,9.20
2023-03-19T06:30:56.213Z,9.40
2023-03-19T06:33:18.889Z,9.30
2023-03-19T06:35:24.303Z,9.80
2023-03-19T06:37:28.374Z,9.30
2023-03-19T06:39:32.380Z,9.30
2023-03-19T06:41:34.753Z,9.40
2023-03-19T06:43:47.721Z,10.30
2023-03-19T06:45:50.242Z,9.40
2023-03-19T06:47:53.660Z,10.00
2023-03-19T06:49:56.581Z,9.40
2023-03-19T06:52:02.008Z,9.40
2023-03-19T06:54:04.672Z,9.80
2023-03-19T06:56:07.361Z,9.40
2023-03-19T06:58:10.252Z,9.50
2023-03-19T07:00:14.792Z,9.50
2023-03-19T07:02:17.327Z,9.50
2023-03-19T07:04:20.437Z,9.60
2023-03-19T07:06:23.725Z,9.60
2023-03-19T07:08:30.069Z,9.60
2023-03-19T07:10:32.577Z,9.70
2023-03-19T07:12:35.526Z,9.70
2023-03-19T07:14:38.103Z,10.00
2023-03-19T07:16:40.753Z,9.80
2023-03-19T07:18:43.253Z,10.60
2023-03-19T07:20:46.763Z,9.90
2023-03-19T07:22:51.041Z,9.90
2023-03-19T07:24:55.876Z,10.20
2023-03-19T07:26:58.769Z,10.00
2023-03-19T07:29:01.969Z,10.10
2023-03-19T07:31:04.864Z,10.10
2023-03-19T07:33:07.706Z,10.20
2023-03-19T07:35:10.808Z,10.30
2023-03-19T07:37:13.188Z,10.30
2023-03-19T07:39:15.680Z,10.40
2023-03-19T07:41:20.842Z,10.40
2023-03-19T07:43:23.287Z,10.10
2023-03-19T07:45:25.696Z,11.20
2023-03-19T07:47:29.512Z,10.60
2023-03-19T07:49:32.091Z,10.70
2023-03-19T07:51:34.695Z,10.70
2023-03-19T07:53:37.101Z,10.80
2023-03-19T07:55:39.646Z,10.70
2023-03-19T07:57:44.651Z,11.40
2023-03-19T07:59:47.179Z,10.80
2023-03-19T08:01:49.714Z,11.50
2023-03-19T08:03:52.275Z,11.00
2023-03-19T08:05:54.809Z,11.10
2023-03-19T08:07:58.005Z,11.10
2023-03-19T08:10:00.685Z,11.20
2023-03-19T08:12:03.152Z,11.20
2023-03-19T08:14:08.263Z,11.30
2023-03-19T08:16:10.729Z,11.40
2023-03-19T08:18:13.771Z,11.30
2023-03-19T08:20:17.154Z,11.30
2023-03-19T08:22:19.675Z,11.40
2023-03-19T08:24:22.658Z,11.40
2023-03-19T08:26:25.157Z,11.40
2023-03-19T08:28:27.650Z,11.40
2023-03-19T08:30:33.191Z,11.40
2023-03-19T08:32:36.229Z,11.40
2023-03-19T08:34:38.631Z,11.40
2023-03-19T08:36:41.207Z,11.40
2023-03-19T08:38:44.878Z,11.50
2023-03-19T08:40:47.847Z,11.60
2023-03-19T08:42:50.221Z,11.60
2023-03-19T08:44:52.612Z,11.60
2023-03-19T08:47:00.761Z,11.90
2023-03-19T08:49:05.779Z,12.10
2023-03-19T08:51:09.757Z,11.70
2023-03-19T08:53:12.202Z,11.80
2023-03-19T08:55:14.877Z,11.70
2023-03-19T08:57:17.404Z,11.70
2023-03-19T08:59:19.786Z,11.70
2023-03-19T09:01:22.236Z,11.60
2023-03-19T09:03:27.487Z,11.60
2023-03-19T09:05:29.932Z,11.60
2023-03-19T09:07:32.455Z,11.60
2023-03-19T09:09:36.054Z,11.60
2023-03-19T09:11:38.909Z,11.70
2023-03-19T09:13:41.381Z,11.70
2023-03-19T09:15:43.793Z,11.80
2023-03-19T09:17:46.734Z,12.50
2023-03-19T09:19:51.782Z,11.90
2023-03-19T09:21:54.335Z,12.00
2023-03-19T09:23:56.759Z,12.10
2023-03-19T09:25:59.356Z,12.60
2023-03-19T09:28:01.887Z,12.50
2023-03-19T09:30:06.152Z,12.20
2023-03-19T09:32:08.455Z,12.80
2023-03-19T09:34:11.171Z,12.90
2023-03-19T09:36:20.979Z,13.10
2023-03-19T09:38:23.565Z,13.20
2023-03-19T09:40:29.912Z,12.90
2023-03-19T09:42:52.826Z,12.90
2023-03-19T09:44:55.367Z,12.80
2023-03-19T09:47:05.031Z,12.70
2023-03-19T09:49:17.240Z,12.70
2023-03-19T09:51:27.870Z,12.60
2023-03-19T09:53:39.517Z,12.50
2023-03-19T09:55:45.134Z,12.50
2023-03-19T09:57:48.449Z,12.50
2023-03-19T09:59:52.402Z,12.50
2023-03-19T10:02:01.392Z,12.50
2023-03-19T10:04:27.060Z,12.50
2023-03-19T10:06:35.767Z,12.40
2023-03-19T10:08:50.039Z,12.40
2023-03-19T10:11:15.544Z,12.30
2023-03-19T10:13:35.799Z,12.30
2023-03-19T10:15:39.627Z,12.30
2023-03-19T10:17:50.120Z,12.30
2023-03-19T10:19:57.371Z,12.30
2023-03-19T10:22:05.857Z,12.40
2023-03-19T10:24:13.949Z,12.40
2023-03-19T10:26:19.831Z,12.40
2023-03-19T10:28:23.218Z,12.40
2023-03-19T10:30:25.738Z,12.50
2023-03-19T10:32:38.332Z,12.70
2023-03-19T10:34:43.606Z,12.50
2023-03-19T10:36:48.855Z,12.50
2023-03-19T10:38:53.950Z,12.90
2023-03-19T10:41:08.901Z,12.70
2023-03-19T10:43:21.154Z,12.50
2023-03-19T10:45:27.777Z,12.60
2023-03-19T10:47:38.651Z,12.70
2023-03-19T10:49:41.729Z,12.70
2023-03-19T10:51:45.708Z,12.70
2023-03-19T10:53:48.272Z,13.10
2023-03-19T10:55:55.946Z,12.80
2023-03-19T10:58:03.919Z,13.00
2023-03-19T11:00:15.576Z,12.70
2023-03-19T11:02:20.677Z,12.70
2023-03-19T11:04:24.408Z,12.70
2023-03-19T11:06:31.751Z,12.80
2023-03-19T11:08:36.564Z,12.70
2023-03-19T11:10:47.201Z,12.60
2023-03-19T11:12:57.942Z,12.60
2023-03-19T11:15:04.070Z,12.60
2023-03-19T11:17:16.411Z,12.60
2023-03-19T11:19:21.977Z,12.60
2023-03-19T11:21:30.472Z,12.90
2023-03-19T11:23:41.242Z,12.60
2023-03-19T11:25:51.217Z,13.10
2023-03-19T11:28:02.400Z,12.70
2023-03-19T11:30:17.221Z,12.70
2023-03-19T11:32:44.248Z,12.70
2023-03-19T11:34:52.621Z,12.70
2023-03-19T11:37:05.318Z,12.70
2023-03-19T11:39:19.001Z,12.70
2023-03-19T11:41:31.536Z,12.80
2023-03-19T11:43:56.413Z,12.80
2023-03-19T11:46:10.313Z,13.10
2023-03-19T11:48:34.808Z,13.40
2023-03-19T11:50:44.559Z,13.30
2023-03-19T11:52:58.573Z,13.40
2023-03-19T11:55:13.405Z,13.40
2023-03-19T11:57:20.074Z,13.60
2023-03-19T11:59:51.304Z,13.60
2023-03-19T12:02:29.234Z,13.50
2023-03-19T12:04:47.550Z,13.70
2023-03-19T12:06:57.225Z,13.70
2023-03-19T12:09:03.552Z,13.80
2023-03-19T12:11:19.435Z,13.80
2023-03-19T12:13:34.936Z,13.70
2023-03-19T12:15:45.593Z,13.60
2023-03-19T12:18:01.910Z,13.50
2023-03-19T12:20:31.103Z,13.50
2023-03-19T12:22:53.704Z,13.50
2023-03-19T12:25:16.959Z,13.40
2023-03-19T12:27:28.886Z,13.40
2023-03-19T12:29:40.247Z,13.30
2023-03-19T12:32:17.002Z,13.30
2023-03-19T12:34:30.062Z,13.40
2023-03-19T12:36:37.088Z,13.40
2023-03-19T12:38:43.360Z,13.40
2023-03-19T12:40:50.880Z,13.30
2023-03-19T12:42:57.455Z,13.30
2023-03-19T12:45:04.807Z,13.40
2023-03-19T12:47:11.918Z,13.70
2023-03-19T12:49:21.607Z,13.20
2023-03-19T12:51:28.951Z,13.10
2023-03-19T12:53:40.995Z,13.00
2023-03-19T12:55:47.665Z,13.00
2023-03-19T12:57:54.792Z,13.10
2023-03-19T13:00:05.053Z,13.00
2023-03-19T13:02:19.914Z,12.90
2023-03-19T13:04:30.011Z,13.00
2023-03-19T13:06:37.178Z,12.70
2023-03-19T13:08:45.489Z,12.70
2023-03-19T13:10:48.301Z,12.70
2023-03-19T13:12:53.578Z,12.60
2023-03-19T13:15:03.466Z,12.60
2023-03-19T13:17:17.115Z,12.60
2023-03-19T13:19:29.697Z,12.60
2023-03-19T13:21:36.384Z,12.60
2023-03-19T13:23:43.152Z,12.60
2023-03-19T13:25:48.569Z,12.60
2023-03-19T13:27:57.003Z,12.60
2023-03-19T13:30:06.896Z,13.20
2023-03-19T13:32:24.504Z,12.20
2023-03-19T13:34:33.591Z,12.40
2023-03-19T13:36:39.356Z,12.40
2023-03-19T13:38:46.260Z,12.60
2023-03-19T13:40:50.867Z,12.20
2023-03-19T13:42:57.294Z,12.50
2023-03-19T13:45:03.968Z,12.50
2023-03-19T13:47:37.086Z,12.00
2023-03-19T13:50:05.716Z,11.90
2023-03-19T13:52:41.122Z,11.80
2023-03-19T13:54:46.514Z,11.80
2023-03-19T13:57:18.582Z,12.00
2023-03-19T13:59:27.845Z,11.70
2023-03-19T14:01:41.630Z,11.70
2023-03-19T14:03:56.203Z,11.60
2023-03-19T14:06:01.939Z,11.60
2023-03-19T14:08:17.226Z,11.60
2023-03-19T14:10:25.360Z,12.20
2023-03-19T14:12:33.165Z,12.10
2023-03-19T14:14:41.323Z,11.60
2023-03-19T14:16:48.712Z,11.90
2023-03-19T14:18:51.282Z,11.50
2023-03-19T14:21:03.195Z,11.60
2023-03-19T14:23:41.163Z,11.60
2023-03-19T14:26:05.369Z,11.50
2023-03-19T14:28:10.553Z,11.50
2023-03-19T14:30:25.024Z,11.40
2023-03-19T14:32:35.161Z,11.40
2023-03-19T14:34:40.943Z,11.40
2023-03-19T14:36:51.437Z,11.40
2023-03-19T14:38:58.481Z,11.30
2023-03-19T14:41:02.020Z,11.30
2023-03-19T14:43:13.847Z,11.30
2023-03-19T14:45:37.012Z,11.70
2023-03-19T14:47:56.989Z,11.10
2023-03-19T14:50:26.144Z,11.10
2023-03-19T14:52:35.589Z,11.00
2023-03-19T14:54:42.793Z,11.10
2023-03-19T14:56:48.234Z,11.00
2023-03-19T14:58:53.926Z,11.20
2023-03-19T15:00:56.559Z,11.00
2023-03-19T15:02:59.157Z,11.00
2023-03-19T15:05:04.886Z,11.00
2023-03-19T15:07:20.037Z,11.00
2023-03-19T15:09:27.311Z,11.00
2023-03-19T15:12:08.519Z,11.00
2023-03-19T15:14:23.059Z,11.00
2023-03-19T15:16:35.565Z,11.00
2023-03-19T15:18:39.571Z,11.00
2023-03-19T15:20:46.762Z,11.00
2023-03-19T15:22:54.698Z,11.00
2023-03-19T15:25:06.747Z,10.90
2023-03-19T15:27:22.745Z,11.00
2023-03-19T15:29:32.713Z,10.90
2023-03-19T15:31:52.372Z,10.90
2023-03-19T15:33:59.870Z,11.10
2023-03-19T15:36:07.910Z,10.90
2023-03-19T15:38:12.407Z,10.90
2023-03-19T15:40:20.794Z,10.90
2023-03-19T15:42:26.065Z,10.90
2023-03-19T15:44:34.001Z,10.90
2023-03-19T15:46:39.572Z,10.90
2023-03-19T15:48:46.785Z,10.80
2023-03-19T15:50:52.243Z,10.90
2023-03-19T15:52:57.728Z,10.90
2023-03-19T15:55:01.674Z,11.00
2023-03-19T15:57:08.252Z,10.90
2023-03-19T15:59:11.269Z,10.90
2023-03-19T16:01:16.566Z,10.90
2023-03-19T16:03:21.435Z,11.10
2023-03-19T16:05:28.411Z,10.70
2023-03-19T16:07:42.502Z,10.70
2023-03-19T16:09:44.945Z,10.70
2023-03-19T16:11:47.694Z,11.20
2023-03-19T16:13:58.077Z,10.70
2023-03-19T16:16:03.521Z,11.00
2023-03-19T16:18:27.293Z,10.70
2023-03-19T16:20:30.934Z,10.70
2023-03-19T16:22:33.612Z,10.80
2023-03-19T16:24:39.965Z,10.80
2023-03-19T16:26:44.249Z,10.70
2023-03-19T16:28:47.555Z,10.70
2023-03-19T16:30:52.773Z,10.70
2023-03-19T16:32:59.426Z,10.70
2023-03-19T16:35:05.600Z,10.70
2023-03-19T16:37:40.495Z,10.60
2023-03-19T16:39:55.153Z,10.60
2023-03-19T16:42:17.605Z,10.60
2023-03-19T16:44:27.059Z,10.60
2023-03-19T16:46:32.906Z,10.60
2023-03-19T16:48:35.383Z,10.60
2023-03-19T16:50:39.160Z,10.60
2023-03-19T16:52:43.273Z,10.60
2023-03-19T16:54:45.994Z,10.60
2023-03-19T16:56:48.518Z,10.60
2023-03-19T16:58:51.042Z,10.60
2023-03-19T17:00:53.382Z,10.50
2023-03-19T17:02:59.027Z,10.60
2023-03-19T17:05:01.500Z,10.50
2023-03-19T17:07:04.196Z,10.60
2023-03-19T17:09:07.169Z,10.50
2023-03-19T17:11:18.487Z,10.50
2023-03-19T17:13:28.104Z,10.50
2023-03-19T17:15:35.443Z,10.50
2023-03-19T17:17:37.988Z,10.50
2023-03-19T17:19:44.008Z,10.50
2023-03-19T17:21:48.781Z,10.50
2023-03-19T17:23:51.724Z,10.50
2023-03-19T17:25:54.550Z,10.40
2023-03-19T17:27:57.038Z,10.40
2023-03-19T17:29:59.449Z,10.40
2023-03-19T17:32:04.408Z,10.40
2023-03-19T17:34:11.533Z,10.30
2023-03-19T17:36:16.548Z,10.30
2023-03-19T17:38:19.655Z,10.30
2023-03-19T17:40:25.153Z,10.30
2023-03-19T17:42:27.853Z,10.30
2023-03-19T17:44:30.384Z,10.20
2023-03-19T17:46:36.620Z,10.20
2023-03-19T17:48:39.112Z,10.20
2023-03-19T17:50:41.583Z,10.10
2023-03-19T17:52:47.137Z,10.20
2023-03-19T17:54:49.635Z,10.00
2023-03-19T17:56:52.218Z,10.00
2023-03-19T17:58:54.826Z,10.00
2023-03-19T18:00:57.436Z,10.00
2023-03-19T18:02:59.842Z,10.00
2023-03-19T18:05:02.292Z,9.90
2023-03-19T18:07:04.729Z,9.90
2023-03-19T18:09:18.107Z,9.70
2023-03-19T18:11:20.844Z,9.90
2023-03-19T18:13:23.317Z,9.90
2023-03-19T18:15:26.024Z,9.80
2023-03-19T18:17:28.465Z,9.90
2023-03-19T18:19:34.405Z,9.80
2023-03-19T18:21:36.933Z,9.80
2023-03-19T18:23:40.334Z,9.80
2023-03-19T18:25:47.893Z,9.80
2023-03-19T18:27:50.898Z,9.80
2023-03-19T18:29:53.454Z,9.80
2023-03-19T18:32:01.220Z,9.80
2023-03-19T18:34:07.759Z,9.70
2023-03-19T18:36:10.487Z,9.70
2023-03-19T18:38:18.060Z,9.70
2023-03-19T18:40:23.003Z,9.70
2023-03-19T18:42:28.293Z,9.70
2023-03-19T18:44:31.001Z,9.60
2023-03-19T18:46:34.508Z,9.60
2023-03-19T18:48:36.859Z,9.50
2023-03-19T18:50:39.239Z,9.50
2023-03-19T18:52:42.080Z,9.50
2023-03-19T18:54:44.551Z,9.50
2023-03-19T18:56:48.348Z,9.60
2023-03-19T18:58:56.535Z,9.40
2023-03-19T19:01:01.719Z,9.30
2023-03-19T19:03:05.615Z,9.40
2023-03-19T19:05:14.232Z,9.40
2023-03-19T19:07:17.378Z,9.30
2023-03-19T19:09:19.718Z,9.30
2023-03-19T19:11:22.561Z,9.30
2023-03-19T19:13:29.140Z,9.30
2023-03-19T19:15:36.458Z,9.20
2023-03-19T19:17:39.238Z,9.20
2023-03-19T19:19:43.050Z,9.20
2023-03-19T19:21:46.253Z,9.20
2023-03-19T19:23:49.643Z,9.50
2023-03-19T19:25:52.269Z,9.10
2023-03-19T19:27:59.396Z,9.10
2023-03-19T19:30:02.177Z,9.90
2023-03-19T19:32:18.475Z,9.00
2023-03-19T19:34:21.978Z,9.00
2023-03-19T19:36:25.375Z,9.00
2023-03-19T19:38:28.236Z,9.00
2023-03-19T19:40:31.791Z,8.90
2023-03-19T19:42:34.205Z,8.90
2023-03-19T19:44:36.650Z,8.90
2023-03-19T19:46:39.187Z,8.90
2023-03-19T19:48:44.346Z,8.90
2023-03-19T19:50:49.647Z,8.90
2023-03-19T19:52:52.572Z,8.90
2023-03-19T19:54:54.975Z,8.90
2023-03-19T19:56:57.999Z,8.90
2023-03-19T19:59:00.912Z,8.90
2023-03-19T20:01:04.658Z,8.90
2023-03-19T20:03:18.339Z,8.90
2023-03-19T20:05:24.963Z,8.90
2023-03-19T20:07:27.481Z,8.90
2023-03-19T20:09:30.030Z,8.90
2023-03-19T20:11:32.554Z,8.90
2023-03-19T20:13:36.686Z,8.90
2023-03-19T20:15:39.080Z,8.90
2023-03-19T20:17:42.129Z,8.90
2023-03-19T20:19:45.440Z,8.80
2023-03-19T20:21:51.256Z,8.70
2023-03-19T20:23:56.651Z,8.70
2023-03-19T20:25:59.856Z,8.70
2023-03-19T20:28:04.030Z,8.60
2023-03-19T20:30:16.801Z,8.60
2023-03-19T20:32:27.064Z,8.60
2023-03-19T20:34:38.997Z,8.60
2023-03-19T20:36:42.183Z,8.60
2023-03-19T20:38:47.331Z,8.50
2023-03-19T20:40:51.883Z,8.50
2023-03-19T20:42:54.541Z,8.50
2023-03-19T20:44:59.901Z,8.50
2023-03-19T20:47:02.347Z,8.50
2023-03-19T20:49:04.733Z,8.40
2023-03-19T20:51:07.582Z,8.40
2023-03-19T20:53:10.080Z,8.30
2023-03-19T20:55:18.743Z,8.30
2023-03-19T20:57:29.170Z,8.40
2023-03-19T20:59:31.774Z,8.30
2023-03-19T21:01:34.151Z,8.40
2023-03-19T21:03:36.668Z,8.30
2023-03-19T21:05:39.239Z,8.30
2023-03-19T21:07:43.319Z,8.30
2023-03-19T21:09:45.677Z,8.30
2023-03-19T21:11:52.276Z,8.30
2023-03-19T21:13:54.722Z,8.30
2023-03-19T21:15:57.716Z,9.00
2023-03-19T21:18:00.126Z,8.30
2023-03-19T21:20:02.636Z,8.30
2023-03-19T21:22:06.197Z,8.30
2023-03-19T21:24:11.842Z,8.30
2023-03-19T21:26:19.584Z,8.30
2023-03-19T21:28:29.338Z,8.30
2023-03-19T21:30:40.840Z,8.30
2023-03-19T21:32:43.380Z,8.30
2023-03-19T21:34:46.767Z,8.30
2023-03-19T21:36:49.147Z,8.30
2023-03-19T21:38:52.634Z,8.30
2023-03-19T21:40:58.381Z,8.30
2023-03-19T21:43:03.043Z,8.30
2023-03-19T21:45:17.649Z,8.30
2023-03-19T21:47:21.648Z,8.30
2023-03-19T21:49:24.106Z,9.00
2023-03-19T21:51:28.783Z,8.30
2023-03-19T21:53:33.544Z,8.20
2023-03-19T21:55:36.165Z,8.50
2023-03-19T21:57:38.662Z,8.20
2023-03-19T21:59:41.573Z,8.20
2023-03-19T22:01:47.466Z,8.50
2023-03-19T22:03:51.007Z,8.20
2023-03-19T22:05:53.631Z,8.20
2023-03-19T22:07:56.380Z,8.20
2023-03-19T22:09:58.701Z,8.20
2023-03-19T22:12:01.483Z,8.20
2023-03-19T22:14:06.401Z,8.20
2023-03-19T22:16:17.753Z,8.30
2023-03-19T22:18:22.924Z,8.20
2023-03-19T22:20:26.521Z,8.10
2023-03-19T22:22:29.160Z,8.10
2023-03-19T22:24:32.244Z,8.10
2023-03-19T22:26:36.194Z,8.10
2023-03-19T22:28:38.607Z,8.20
2023-03-19T22:30:41.667Z,8.10
2023-03-19T22:32:44.123Z,8.10
2023-03-19T22:34:49.308Z,8.00
2023-03-19T22:36:51.848Z,8.00
2023-03-19T22:38:54.316Z,8.00
2023-03-19T22:40:57.217Z,8.00
2023-03-19T22:42:59.725Z,8.30
2023-03-19T22:45:02.252Z,7.40
2023-03-19T22:47:04.995Z,7.90
2023-03-19T22:49:13.392Z,7.90
2023-03-19T22:51:21.705Z,7.90
2023-03-19T22:53:27.918Z,7.90
2023-03-19T22:55:30.402Z,7.80
2023-03-19T22:57:32.806Z,7.90
2023-03-19T22:59:35.454Z,7.80
2023-03-19T23:01:41.771Z,7.80
2023-03-19T23:03:45.085Z,7.80
2023-03-19T23:05:52.060Z,7.80
2023-03-19T23:07:57.833Z,7.80
2023-03-19T23:10:00.834Z,7.80
2023-03-19T23:12:04.841Z,7.70
2023-03-19T23:14:12.556Z,7.70
2023-03-19T23:16:25.252Z,7.70
2023-03-19T23:18:30.792Z,7.70
2023-03-19T23:20:33.829Z,7.70
2023-03-19T23:22:36.572Z,7.70
2023-03-19T23:24:42.831Z,7.70
2023-03-19T23:26:46.498Z,7.60
2023-03-19T23:28:48.916Z,7.70
2023-03-19T23:30:52.508Z,7.70
2023-03-19T23:32:56.216Z,7.70
2023-03-19T23:35:01.705Z,7.70
2023-03-19T23:37:04.587Z,7.90
2023-03-19T23:39:07.574Z,6.80
2023-03-19T23:41:20.637Z,7.70
2023-03-19T23:43:25.203Z,8.00
2023-03-19T23:45:37.084Z,7.60
2023-03-19T23:47:39.659Z,7.60
2023-03-19T23:49:42.308Z,7.60
2023-03-19T23:51:44.615Z,7.60
2023-03-19T23:53:47.330Z,7.70
2023-03-19T23:55:51.653Z,7.60
2023-03-19T23:57:56.565Z,7.60
2023-03-19T23:59:58.945Z,7.60
